createdAt,value
2023-08-22T00:00:41.598Z,100760.63
2023-08-22T00:01:44.005Z,100762.63
2023-08-22T00:02:46.396Z,100762.09
2023-08-22T00:03:48.997Z,100765.25
2023-08-22T00:04:52.498Z,100764.78
2023-08-22T00:05:56.313Z,100774.38
2023-08-22T00:06:58.669Z,100766.25
2023-08-22T00:08:01.753Z,100761.78
2023-08-22T00:09:06.416Z,100761.28
2023-08-22T00:10:10.261Z,100758.81
2023-08-22T00:11:12.730Z,100763.63
2023-08-22T00:12:15.090Z,100758.31
2023-08-22T00:13:17.470Z,100757.81
2023-08-22T00:14:19.830Z,100758.97
2023-08-22T00:15:22.314Z,100760.97
2023-08-22T00:16:24.698Z,100758.78
2023-08-22T00:17:27.100Z,100766.94
2023-08-22T00:18:29.898Z,100767.22
2023-08-22T00:19:32.243Z,100762.78
2023-08-22T00:20:34.653Z,100757.44
2023-08-22T00:21:37.489Z,100758.63
2023-08-22T00:22:40.067Z,100758.91
2023-08-22T00:23:42.412Z,100758.44
2023-08-22T00:24:45.285Z,100757.59
2023-08-22T00:25:47.641Z,100757.59
2023-08-22T00:26:50.014Z,100761.59
2023-08-22T00:27:52.432Z,100756.25
2023-08-22T00:28:54.812Z,100749.81
2023-08-22T00:29:58.295Z,100750.97
2023-08-22T00:31:00.738Z,100750.16
2023-08-22T00:32:05.028Z,100745.69
2023-08-22T00:33:07.466Z,100756.94
2023-08-22T00:34:11.384Z,100748.50
2023-08-22T00:35:13.740Z,100752.16
2023-08-22T00:36:16.161Z,100754.13
2023-08-22T00:37:20.295Z,100749.34
2023-08-22T00:38:22.978Z,100750.50
2023-08-22T00:39:26.344Z,100740.41
2023-08-22T00:40:29.104Z,100749.34
2023-08-22T00:41:31.533Z,100746.03
2023-08-22T00:42:34.745Z,100744.03
2023-08-22T00:43:38.241Z,100740.41
2023-08-22T00:44:40.665Z,100740.41
2023-08-22T00:45:44.218Z,100741.22
2023-08-22T00:46:47.243Z,100731.97
2023-08-22T00:47:49.831Z,100744.88
2023-08-22T00:48:52.791Z,100738.41
2023-08-22T00:49:55.843Z,100734.78
2023-08-22T00:50:58.761Z,100736.44
2023-08-22T00:52:03.814Z,100738.09
2023-08-22T00:53:08.591Z,100734.44
2023-08-22T00:54:15.598Z,100729.97
2023-08-22T00:55:18.647Z,100731.97
2023-08-22T00:56:21.090Z,100728.34
2023-08-22T00:57:23.721Z,100732.28
2023-08-22T00:58:26.764Z,100738.75
2023-08-22T00:59:29.371Z,100729.50
2023-08-22T01:00:32.188Z,100725.81
2023-08-22T01:01:35.063Z,100724.19
2023-08-22T01:02:40.005Z,100724.19
2023-08-22T01:03:42.587Z,100727.00
2023-08-22T01:04:45.551Z,100726.50
2023-08-22T01:05:54.682Z,100724.84
2023-08-22T01:07:12.999Z,100724.84
2023-08-22T01:08:21.989Z,100721.22
2023-08-22T01:09:32.882Z,100727.97
2023-08-22T01:10:39.944Z,100725.50
2023-08-22T01:11:50.544Z,100719.03
2023-08-22T01:12:59.148Z,100712.09
2023-08-22T01:14:06.094Z,100722.50
2023-08-22T01:15:19.610Z,100715.91
2023-08-22T01:16:22.350Z,100709.78
2023-08-22T01:17:25.169Z,100713.75
2023-08-22T01:18:28.933Z,100709.63
2023-08-22T01:19:31.271Z,100716.38
2023-08-22T01:20:35.618Z,100713.06
2023-08-22T01:21:52.938Z,100707.78
2023-08-22T01:22:57.482Z,100702.50
2023-08-22T01:24:00.055Z,100707.59
2023-08-22T01:25:02.698Z,100707.13
2023-08-22T01:26:05.167Z,100700.66
2023-08-22T01:27:12.524Z,100703.78
2023-08-22T01:28:41.146Z,100696.03
2023-08-22T01:29:52.608Z,100703.63
2023-08-22T01:31:08.581Z,100703.13
2023-08-22T01:32:20.882Z,100699.00
2023-08-22T01:33:34.495Z,100694.84
2023-08-22T01:34:39.826Z,100698.81
2023-08-22T01:35:46.360Z,100694.34
2023-08-22T01:36:53.466Z,100697.81
2023-08-22T01:37:57.227Z,100693.69
2023-08-22T01:39:05.086Z,100698.47
2023-08-22T01:40:09.108Z,100694.31
2023-08-22T01:41:11.929Z,100689.03
2023-08-22T01:42:14.574Z,100684.53
2023-08-22T01:43:17.243Z,100687.66
2023-08-22T01:44:19.623Z,100690.00
2023-08-22T01:45:22.000Z,100692.28
2023-08-22T01:46:25.607Z,100701.06
2023-08-22T01:47:28.186Z,100686.50
2023-08-22T01:48:30.717Z,100687.66
2023-08-22T01:49:37.182Z,100680.38
2023-08-22T01:50:39.728Z,100679.53
2023-08-22T01:51:42.762Z,100682.69
2023-08-22T01:52:45.256Z,100675.09
2023-08-22T01:53:47.833Z,100679.06
2023-08-22T01:54:50.405Z,100678.22
2023-08-22T01:55:52.833Z,100670.97
2023-08-22T01:56:55.316Z,100671.78
2023-08-22T01:57:57.725Z,100670.13
2023-08-22T01:59:00.240Z,100678.88
2023-08-22T02:00:04.995Z,100670.78
2023-08-22T02:01:15.303Z,100681.16
2023-08-22T02:02:17.702Z,100668.31
2023-08-22T02:03:22.159Z,100671.41
2023-08-22T02:04:24.677Z,100666.13
2023-08-22T02:05:27.177Z,100674.56
2023-08-22T02:06:29.658Z,100667.28
2023-08-22T02:07:36.606Z,100658.34
2023-08-22T02:08:40.816Z,100661.50
2023-08-22T02:09:43.218Z,100653.88
2023-08-22T02:10:45.636Z,100657.84
2023-08-22T02:11:47.978Z,100652.22
2023-08-22T02:12:50.354Z,100650.59
2023-08-22T02:13:52.845Z,100654.22
2023-08-22T02:14:55.651Z,100653.41
2023-08-22T02:15:58.074Z,100652.56
2023-08-22T02:17:00.630Z,100657.34
2023-08-22T02:18:03.558Z,100658.50
2023-08-22T02:19:07.382Z,100661.66
2023-08-22T02:20:10.857Z,100653.22
2023-08-22T02:21:13.193Z,100660.81
2023-08-22T02:22:16.055Z,100656.34
2023-08-22T02:23:20.261Z,100659.47
2023-08-22T02:24:22.664Z,100655.03
2023-08-22T02:25:25.026Z,100654.19
2023-08-22T02:26:27.650Z,100653.38
2023-08-22T02:27:30.283Z,100652.53
2023-08-22T02:28:32.679Z,100654.50
2023-08-22T02:29:35.559Z,100652.03
2023-08-22T02:30:38.491Z,100655.66
2023-08-22T02:31:40.907Z,100654.84
2023-08-22T02:32:43.426Z,100652.38
2023-08-22T02:33:45.948Z,100657.13
2023-08-22T02:34:48.406Z,100655.19
2023-08-22T02:35:50.742Z,100644.25
2023-08-22T02:36:53.145Z,100655.47
2023-08-22T02:37:55.580Z,100659.47
2023-08-22T02:38:57.941Z,100653.84
2023-08-22T02:40:00.350Z,100655.81
2023-08-22T02:41:03.181Z,100648.22
2023-08-22T02:42:05.876Z,100650.19
2023-08-22T02:43:08.242Z,100644.91
2023-08-22T02:44:10.644Z,100644.56
2023-08-22T02:45:13.136Z,100643.25
2023-08-22T02:46:15.702Z,100644.38
2023-08-22T02:47:20.643Z,100642.75
2023-08-22T02:48:23.216Z,100639.63
2023-08-22T02:49:25.629Z,100635.66
2023-08-22T02:50:28.006Z,100636.81
2023-08-22T02:51:30.383Z,100630.34
2023-08-22T02:52:33.415Z,100634.00
2023-08-22T02:53:35.801Z,100626.41
2023-08-22T02:54:38.147Z,100629.53
2023-08-22T02:55:41.460Z,100629.53
2023-08-22T02:56:43.815Z,100633.16
2023-08-22T02:57:46.459Z,100625.91
2023-08-22T02:58:48.803Z,100630.34
2023-08-22T02:59:51.825Z,100630.69
2023-08-22T03:00:55.249Z,100622.59
2023-08-22T03:01:58.435Z,100617.78
2023-08-22T03:03:00.991Z,100625.41
2023-08-22T03:04:03.630Z,100620.94
2023-08-22T03:05:09.384Z,100620.94
2023-08-22T03:06:11.834Z,100612.50
2023-08-22T03:07:14.635Z,100611.69
2023-08-22T03:08:17.032Z,100605.75
2023-08-22T03:09:19.869Z,100603.25
2023-08-22T03:10:22.518Z,100598.31
2023-08-22T03:11:26.390Z,100594.31
2023-08-22T03:12:30.646Z,100605.56
2023-08-22T03:13:33.100Z,100595.50
2023-08-22T03:14:35.480Z,100603.59
2023-08-22T03:15:37.921Z,100609.53
2023-08-22T03:16:40.372Z,100609.53
2023-08-22T03:17:43.060Z,100604.75
2023-08-22T03:18:45.894Z,100606.41
2023-08-22T03:19:48.994Z,100612.03
2023-08-22T03:20:54.622Z,100610.03
2023-08-22T03:21:57.276Z,100612.03
2023-08-22T03:22:59.888Z,100611.16
2023-08-22T03:24:02.249Z,100612.84
2023-08-22T03:25:05.860Z,100607.22
2023-08-22T03:26:12.348Z,100612.03
2023-08-22T03:27:16.358Z,100601.59
2023-08-22T03:28:18.871Z,100608.06
2023-08-22T03:29:21.330Z,100611.69
2023-08-22T03:30:23.836Z,100613.69
2023-08-22T03:31:28.901Z,100610.88
2023-08-22T03:32:31.499Z,100613.69
2023-08-22T03:33:36.069Z,100616.97
2023-08-22T03:34:42.334Z,100623.41
2023-08-22T03:35:44.699Z,100614.97
2023-08-22T03:36:47.162Z,100628.72
2023-08-22T03:37:50.748Z,100623.09
2023-08-22T03:38:53.429Z,100624.25
2023-08-22T03:39:56.261Z,100623.91
2023-08-22T03:40:58.899Z,100622.78
2023-08-22T03:42:01.319Z,100620.28
2023-08-22T03:43:04.089Z,100622.44
2023-08-22T03:44:06.596Z,100610.41
2023-08-22T03:45:10.703Z,100608.41
2023-08-22T03:46:21.583Z,100607.25
2023-08-22T03:47:27.430Z,100598.84
2023-08-22T03:48:30.230Z,100603.59
2023-08-22T03:49:32.702Z,100594.38
2023-08-22T03:50:35.080Z,100592.06
2023-08-22T03:51:37.636Z,100600.50
2023-08-22T03:52:40.056Z,100598.50
2023-08-22T03:53:42.955Z,100602.13
2023-08-22T03:54:45.377Z,100597.34
2023-08-22T03:55:47.735Z,100599.00
2023-08-22T03:56:50.973Z,100607.91
2023-08-22T03:57:53.452Z,100602.31
2023-08-22T03:58:55.782Z,100598.69
2023-08-22T03:59:58.687Z,100597.22
2023-08-22T04:01:06.670Z,100595.22
2023-08-22T04:02:10.458Z,100589.59
2023-08-22T04:03:12.920Z,100595.72
2023-08-22T04:04:16.179Z,100588.97
2023-08-22T04:05:18.583Z,100589.78
2023-08-22T04:06:21.016Z,100591.44
2023-08-22T04:07:23.381Z,100591.09
2023-08-22T04:08:26.329Z,100593.91
2023-08-22T04:09:28.679Z,100588.81
2023-08-22T04:10:31.021Z,100592.44
2023-08-22T04:11:33.485Z,100588.81
2023-08-22T04:12:35.823Z,100590.44
2023-08-22T04:13:38.197Z,100586.47
2023-08-22T04:14:40.560Z,100592.91
2023-08-22T04:15:42.901Z,100589.81
2023-08-22T04:16:45.309Z,100588.97
2023-08-22T04:17:49.997Z,100589.47
2023-08-22T04:18:53.776Z,100596.41
2023-08-22T04:19:56.106Z,100593.59
2023-08-22T04:20:58.508Z,100589.66
2023-08-22T04:22:00.897Z,100593.28
2023-08-22T04:23:03.838Z,100592.94
2023-08-22T04:24:06.557Z,100584.50
2023-08-22T04:25:12.819Z,100594.59
2023-08-22T04:26:16.863Z,100596.25
2023-08-22T04:27:19.687Z,100594.28
2023-08-22T04:28:23.502Z,100585.84
2023-08-22T04:29:26.446Z,100578.75
2023-08-22T04:30:28.900Z,100584.34
2023-08-22T04:31:31.352Z,100582.06
2023-08-22T04:32:34.119Z,100580.06
2023-08-22T04:33:38.224Z,100582.88
2023-08-22T04:34:40.632Z,100583.72
2023-08-22T04:35:43.627Z,100584.53
2023-08-22T04:36:45.977Z,100579.72
2023-08-22T04:37:48.386Z,100579.72
2023-08-22T04:38:53.952Z,100579.72
2023-08-22T04:39:58.974Z,100574.13
2023-08-22T04:41:30.808Z,100583.72
2023-08-22T04:42:44.992Z,100575.28
2023-08-22T04:43:48.636Z,100578.09
2023-08-22T04:44:51.227Z,100578.09
2023-08-22T04:45:54.009Z,100585.34
2023-08-22T04:46:57.964Z,100574.44
2023-08-22T04:48:00.419Z,100578.09
2023-08-22T04:49:03.364Z,100579.72
2023-08-22T04:50:07.165Z,100581.38
2023-08-22T04:51:09.536Z,100587.00
2023-08-22T04:52:12.389Z,100581.38
2023-08-22T04:53:14.778Z,100581.38
2023-08-22T04:54:17.236Z,100579.44
2023-08-22T04:55:19.846Z,100584.72
2023-08-22T04:56:23.545Z,100584.72
2023-08-22T04:57:26.266Z,100577.91
2023-08-22T04:58:28.667Z,100577.59
2023-08-22T04:59:31.640Z,100587.66
2023-08-22T05:00:34.088Z,100575.28
2023-08-22T05:01:36.579Z,100573.81
2023-08-22T05:02:39.247Z,100576.31
2023-08-22T05:03:41.930Z,100576.00
2023-08-22T05:04:44.323Z,100575.00
2023-08-22T05:05:47.023Z,100581.94
2023-08-22T05:06:49.514Z,100579.28
2023-08-22T05:07:51.884Z,100578.63
2023-08-22T05:08:54.341Z,100576.81
2023-08-22T05:09:56.779Z,100576.16
2023-08-22T05:11:00.012Z,100577.66
2023-08-22T05:12:02.457Z,100580.59
2023-08-22T05:13:05.130Z,100567.56
2023-08-22T05:14:09.523Z,100576.63
2023-08-22T05:15:12.101Z,100566.38
2023-08-22T05:16:14.614Z,100562.25
2023-08-22T05:17:17.611Z,100567.69
2023-08-22T05:18:20.138Z,100566.31
2023-08-22T05:19:23.105Z,100562.22
2023-08-22T05:20:25.508Z,100561.69
2023-08-22T05:21:27.942Z,100569.63
2023-08-22T05:22:30.375Z,100568.28
2023-08-22T05:23:32.890Z,100573.38
2023-08-22T05:24:35.398Z,100573.72
2023-08-22T05:25:38.647Z,100570.88
2023-08-22T05:26:41.604Z,100574.81
2023-08-22T05:27:44.274Z,100569.13
2023-08-22T05:28:46.887Z,100572.25
2023-08-22T05:29:49.217Z,100569.41
2023-08-22T05:30:51.729Z,100571.34
2023-08-22T05:31:54.990Z,100567.66
2023-08-22T05:32:57.908Z,100566.78
2023-08-22T05:34:00.641Z,100568.72
2023-08-22T05:35:03.891Z,100574.59
2023-08-22T05:36:06.629Z,100566.09
2023-08-22T05:37:09.127Z,100569.22
2023-08-22T05:38:11.546Z,100572.31
2023-08-22T05:39:13.891Z,100565.31
2023-08-22T05:40:16.393Z,100561.13
2023-08-22T05:41:19.226Z,100565.69
2023-08-22T05:42:22.136Z,100562.66
2023-08-22T05:43:24.522Z,100556.34
2023-08-22T05:44:27.530Z,100560.94
2023-08-22T05:45:30.626Z,100565.06
2023-08-22T05:46:33.130Z,100553.44
2023-08-22T05:47:36.421Z,100565.19
2023-08-22T05:48:38.867Z,100557.91
2023-08-22T05:49:44.732Z,100559.56
2023-08-22T05:50:49.523Z,100560.38
2023-08-22T05:52:02.134Z,100566.50
2023-08-22T05:53:04.756Z,100567.31
2023-08-22T05:54:07.316Z,100562.53
2023-08-22T05:55:10.178Z,100561.31
2023-08-22T05:56:14.177Z,100562.16
2023-08-22T05:57:16.707Z,100566.66
2023-08-22T05:58:19.149Z,100567.09
2023-08-22T05:59:24.100Z,100561.94
2023-08-22T06:00:26.519Z,100561.72
2023-08-22T06:01:31.963Z,100557.84
2023-08-22T06:02:34.477Z,100559.63
2023-08-22T06:03:40.361Z,100558.94
2023-08-22T06:04:46.460Z,100563.22
2023-08-22T06:05:49.723Z,100552.50
2023-08-22T06:06:53.159Z,100553.94
2023-08-22T06:07:55.686Z,100556.19
2023-08-22T06:08:58.040Z,100549.94
2023-08-22T06:10:02.375Z,100553.03
2023-08-22T06:11:04.830Z,100558.91
2023-08-22T06:12:09.108Z,100549.16
2023-08-22T06:13:12.806Z,100559.16
2023-08-22T06:14:16.251Z,100557.88
2023-08-22T06:15:19.851Z,100551.75
2023-08-22T06:16:22.257Z,100555.75
2023-08-22T06:17:26.497Z,100564.19
2023-08-22T06:18:29.531Z,100556.03
2023-08-22T06:19:31.884Z,100555.22
2023-08-22T06:20:39.650Z,100555.97
2023-08-22T06:21:41.976Z,100556.31
2023-08-22T06:22:44.366Z,100555.44
2023-08-22T06:23:46.796Z,100553.38
2023-08-22T06:24:49.279Z,100559.81
2023-08-22T06:25:51.690Z,100558.56
2023-08-22T06:26:54.025Z,100552.00
2023-08-22T06:27:56.405Z,100553.53
2023-08-22T06:28:59.475Z,100557.94
2023-08-22T06:30:04.076Z,100552.19
2023-08-22T06:31:09.973Z,100553.34
2023-08-22T06:32:15.636Z,100553.25
2023-08-22T06:33:18.107Z,100552.75
2023-08-22T06:34:22.646Z,100553.03
2023-08-22T06:35:26.300Z,100550.03
2023-08-22T06:36:28.890Z,100549.91
2023-08-22T06:37:32.288Z,100554.63
2023-08-22T06:38:34.710Z,100550.81
2023-08-22T06:39:37.159Z,100555.53
2023-08-22T06:40:39.700Z,100551.28
2023-08-22T06:41:42.239Z,100552.28
2023-08-22T06:42:47.762Z,100553.75
2023-08-22T06:43:52.742Z,100548.25
2023-08-22T06:44:58.022Z,100543.63
2023-08-22T06:46:01.651Z,100539.31
2023-08-22T06:47:04.169Z,100543.56
2023-08-22T06:48:06.969Z,100540.44
2023-08-22T06:49:09.390Z,100536.13
2023-08-22T06:50:11.781Z,100536.25
2023-08-22T06:51:14.214Z,100531.50
2023-08-22T06:52:16.651Z,100534.06
2023-08-22T06:53:19.918Z,100537.06
2023-08-22T06:54:22.269Z,100529.88
2023-08-22T06:55:24.995Z,100532.06
2023-08-22T06:56:27.644Z,100533.38
2023-08-22T06:57:29.974Z,100531.13
2023-08-22T06:58:32.429Z,100531.25
2023-08-22T06:59:34.980Z,100541.09
2023-08-22T07:00:37.778Z,100541.25
2023-08-22T07:01:40.841Z,100526.31
2023-08-22T07:02:45.097Z,100532.53
2023-08-22T07:03:50.035Z,100529.81
2023-08-22T07:04:58.502Z,100523.00
2023-08-22T07:06:01.127Z,100523.09
2023-08-22T07:07:03.530Z,100526.03
2023-08-22T07:08:06.077Z,100518.81
2023-08-22T07:09:08.864Z,100520.13
2023-08-22T07:10:14.956Z,100517.34
2023-08-22T07:11:18.794Z,100522.28
2023-08-22T07:12:21.313Z,100516.66
2023-08-22T07:13:23.874Z,100516.31
2023-08-22T07:14:26.286Z,100525.34
2023-08-22T07:15:30.043Z,100530.69
2023-08-22T07:16:32.509Z,100527.06
2023-08-22T07:17:35.101Z,100524.66
2023-08-22T07:18:37.539Z,100533.28
2023-08-22T07:19:42.136Z,100531.66
2023-08-22T07:20:46.667Z,100523.16
2023-08-22T07:21:49.437Z,100527.25
2023-08-22T07:22:52.021Z,100531.34
2023-08-22T07:23:54.420Z,100526.47
2023-08-22T07:24:56.948Z,100531.41
2023-08-22T07:25:59.356Z,100522.03
2023-08-22T07:27:01.724Z,100522.03
2023-08-22T07:28:04.694Z,100523.63
2023-08-22T07:29:07.068Z,100528.97
2023-08-22T07:30:09.881Z,100525.72
2023-08-22T07:31:12.395Z,100526.13
2023-08-22T07:32:14.869Z,100518.34
2023-08-22T07:33:17.352Z,100514.25
2023-08-22T07:34:19.783Z,100512.19
2023-08-22T07:35:22.152Z,100516.66
2023-08-22T07:36:25.024Z,100507.66
2023-08-22T07:37:27.930Z,100510.09
2023-08-22T07:38:30.836Z,100510.88
2023-08-22T07:39:33.230Z,100510.03
2023-08-22T07:40:39.612Z,100504.28
2023-08-22T07:41:42.064Z,100499.34
2023-08-22T07:42:44.497Z,100514.84
2023-08-22T07:43:46.858Z,100508.31
2023-08-22T07:44:49.223Z,100513.19
2023-08-22T07:45:51.603Z,100511.13
2023-08-22T07:46:54.132Z,100514.78
2023-08-22T07:47:56.612Z,100515.97
2023-08-22T07:48:59.646Z,100509.38
2023-08-22T07:50:02.127Z,100506.06
2023-08-22T07:51:04.625Z,100509.28
2023-08-22T07:52:07.104Z,100501.09
2023-08-22T07:53:09.528Z,100505.97
2023-08-22T07:54:11.990Z,100497.31
2023-08-22T07:55:14.513Z,100507.91
2023-08-22T07:56:16.873Z,100498.03
2023-08-22T07:57:19.808Z,100502.88
2023-08-22T07:58:22.296Z,100498.69
2023-08-22T07:59:24.795Z,100502.34
2023-08-22T08:00:27.460Z,100494.94
2023-08-22T08:01:29.922Z,100497.75
2023-08-22T08:02:32.330Z,100492.38
2023-08-22T08:03:34.962Z,100499.28
2023-08-22T08:04:37.469Z,100500.44
2023-08-22T08:05:39.907Z,100492.19
2023-08-22T08:06:42.686Z,100491.72
2023-08-22T08:07:45.144Z,100495.75
2023-08-22T08:08:47.600Z,100496.50
2023-08-22T08:09:49.900Z,100501.75
2023-08-22T08:10:52.257Z,100497.16
2023-08-22T08:11:54.718Z,100493.81
2023-08-22T08:12:57.086Z,100495.78
2023-08-22T08:14:00.026Z,100497.75
2023-08-22T08:15:03.649Z,100496.88
2023-08-22T08:16:07.996Z,100490.25
2023-08-22T08:17:10.824Z,100492.19
2023-08-22T08:18:13.296Z,100498.66
2023-08-22T08:19:17.368Z,100505.09
2023-08-22T08:20:19.735Z,100496.81
2023-08-22T08:21:22.536Z,100495.44
2023-08-22T08:22:24.910Z,100492.91
2023-08-22T08:23:28.223Z,100495.69
2023-08-22T08:24:30.569Z,100491.09
2023-08-22T08:25:32.958Z,100496.72
2023-08-22T08:26:35.679Z,100499.47
2023-08-22T08:27:38.646Z,100494.03
2023-08-22T08:28:41.067Z,100494.34
2023-08-22T08:29:43.419Z,100493.44
2023-08-22T08:30:45.783Z,100496.63
2023-08-22T08:31:48.835Z,100499.84
2023-08-22T08:32:51.433Z,100493.56
2023-08-22T08:33:56.798Z,100491.78
2023-08-22T08:34:59.138Z,100484.28
2023-08-22T08:36:01.501Z,100487.47
2023-08-22T08:37:05.469Z,100484.91
2023-08-22T08:38:08.611Z,100482.34
2023-08-22T08:39:11.077Z,100481.03
2023-08-22T08:40:14.037Z,100480.53
2023-08-22T08:41:19.164Z,100481.25
2023-08-22T08:42:21.635Z,100482.88
2023-08-22T08:43:24.148Z,100487.69
2023-08-22T08:44:28.374Z,100489.31
2023-08-22T08:45:31.599Z,100481.88
2023-08-22T08:46:35.256Z,100482.59
2023-08-22T08:47:37.977Z,100476.38
2023-08-22T08:48:41.924Z,100476.75
2023-08-22T08:49:44.389Z,100468.47
2023-08-22T08:50:47.974Z,100480.72
2023-08-22T08:51:50.985Z,100468.34
2023-08-22T08:52:53.383Z,100473.22
2023-08-22T08:53:56.430Z,100475.22
2023-08-22T08:55:00.109Z,100473.09
2023-08-22T08:56:04.374Z,100472.63
2023-08-22T08:57:06.820Z,100477.50
2023-08-22T08:58:09.279Z,100473.72
2023-08-22T08:59:11.642Z,100473.63
2023-08-22T09:00:16.308Z,100469.88
2023-08-22T09:01:19.515Z,100467.34
2023-08-22T09:02:21.987Z,100465.66
2023-08-22T09:03:25.957Z,100467.66
2023-08-22T09:04:29.090Z,100464.78
2023-08-22T09:05:32.076Z,100463.94
2023-08-22T09:06:34.474Z,100467.19
2023-08-22T09:07:37.298Z,100470.44
2023-08-22T09:08:40.473Z,100464.22
2023-08-22T09:09:43.480Z,100469.56
2023-08-22T09:10:53.330Z,100463.69
2023-08-22T09:11:56.016Z,100463.69
2023-08-22T09:13:03.318Z,100467.38
2023-08-22T09:14:06.387Z,100463.69
2023-08-22T09:15:10.983Z,100473.53
2023-08-22T09:16:13.388Z,100467.34
2023-08-22T09:17:19.565Z,100475.09
2023-08-22T09:18:22.210Z,100468.88
2023-08-22T09:19:24.973Z,100465.91
2023-08-22T09:20:29.490Z,100467.88
2023-08-22T09:21:32.520Z,100469.06
2023-08-22T09:22:35.670Z,100462.41
2023-08-22T09:23:37.986Z,100463.59
2023-08-22T09:24:50.870Z,100461.88
2023-08-22T09:25:53.190Z,100453.22
2023-08-22T09:26:56.322Z,100451.50
2023-08-22T09:27:59.017Z,100460.59
2023-08-22T09:29:08.218Z,100462.22
2023-08-22T09:30:13.002Z,100447.00
2023-08-22T09:31:25.918Z,100448.97
2023-08-22T09:32:28.502Z,100446.09
2023-08-22T09:33:45.405Z,100442.31
2023-08-22T09:34:56.653Z,100446.81
2023-08-22T09:35:59.008Z,100440.63
2023-08-22T09:37:01.947Z,100439.31
2023-08-22T09:38:08.803Z,100440.16
2023-08-22T09:39:14.073Z,100437.28
2023-08-22T09:40:17.996Z,100436.81
2023-08-22T09:41:26.076Z,100431.84
2023-08-22T09:42:31.993Z,100433.47
2023-08-22T09:43:34.572Z,100431.06
2023-08-22T09:44:37.315Z,100431.84
2023-08-22T09:45:43.800Z,100435.09
2023-08-22T09:46:50.188Z,100435.09
2023-08-22T09:47:57.789Z,100431.38
2023-08-22T09:49:02.112Z,100431.38
2023-08-22T09:50:08.691Z,100440.88
2023-08-22T09:51:12.984Z,100433.47
2023-08-22T09:52:16.065Z,100432.69
2023-08-22T09:53:21.412Z,100430.59
2023-08-22T09:54:24.469Z,100430.22
2023-08-22T09:55:27.824Z,100431.59
2023-08-22T09:56:32.458Z,100432.13
2023-08-22T09:57:36.691Z,100426.91
2023-08-22T09:58:40.126Z,100431.03
2023-08-22T09:59:42.913Z,100429.97
2023-08-22T10:00:46.325Z,100425.09
2023-08-22T10:01:49.618Z,100424.38
2023-08-22T10:02:52.840Z,100429.44
2023-08-22T10:03:56.035Z,100426.63
2023-08-22T10:04:58.639Z,100419.66
2023-08-22T10:06:02.230Z,100420.47
2023-08-22T10:07:04.816Z,100420.56
2023-08-22T10:08:07.398Z,100418.13
2023-08-22T10:09:11.971Z,100424.34
2023-08-22T10:10:15.135Z,100411.63
2023-08-22T10:11:19.347Z,100423.63
2023-08-22T10:12:23.131Z,100420.00
2023-08-22T10:13:25.869Z,100424.13
2023-08-22T10:14:59.387Z,100423.88
2023-08-22T10:16:02.565Z,100419.91
2023-08-22T10:17:05.287Z,100422.06
2023-08-22T10:18:07.773Z,100423.75
2023-08-22T10:19:10.502Z,100419.78
2023-08-22T10:20:13.829Z,100423.16
2023-08-22T10:21:18.194Z,100414.59
2023-08-22T10:22:20.682Z,100418.94
2023-08-22T10:23:54.049Z,100429.28
2023-08-22T10:25:03.173Z,100436.91
2023-08-22T10:26:05.510Z,100434.16
2023-08-22T10:27:16.629Z,100430.09
2023-08-22T10:28:19.529Z,100440.06
2023-08-22T10:29:21.919Z,100439.72
2023-08-22T10:30:24.791Z,100436.13
2023-08-22T10:31:27.210Z,100433.34
2023-08-22T10:32:29.727Z,100432.16
2023-08-22T10:33:35.857Z,100438.31
2023-08-22T10:34:44.487Z,100438.78
2023-08-22T10:36:09.614Z,100433.91
2023-08-22T10:37:29.542Z,100437.75
2023-08-22T10:38:49.531Z,100433.28
2023-08-22T10:39:51.856Z,100432.56
2023-08-22T10:40:55.929Z,100433.00
2023-08-22T10:41:58.810Z,100437.13
2023-08-22T10:43:13.119Z,100431.00
2023-08-22T10:44:20.931Z,100437.66
2023-08-22T10:45:23.301Z,100440.59
2023-08-22T10:46:58.437Z,100431.16
2023-08-22T10:48:13.351Z,100430.78
2023-08-22T10:49:21.052Z,100444.00
2023-08-22T10:50:23.580Z,100450.59
2023-08-22T10:51:43.620Z,100435.03
2023-08-22T10:52:46.377Z,100436.72
2023-08-22T10:53:49.166Z,100438.47
2023-08-22T10:55:13.039Z,100440.59
2023-08-22T10:56:21.783Z,100444.34
2023-08-22T10:57:25.262Z,100437.84
2023-08-22T10:58:35.572Z,100437.09
2023-08-22T10:59:59.725Z,100433.88
2023-08-22T11:01:05.548Z,100434.75
2023-08-22T11:02:07.966Z,100438.84
2023-08-22T11:03:10.718Z,100434.78
2023-08-22T11:04:14.882Z,100434.03
2023-08-22T11:05:17.276Z,100440.69
2023-08-22T11:06:21.042Z,100433.28
2023-08-22T11:07:23.922Z,100436.22
2023-08-22T11:08:27.465Z,100424.34
2023-08-22T11:09:30.027Z,100428.88
2023-08-22T11:10:33.665Z,100421.94
2023-08-22T11:11:36.238Z,100428.97
2023-08-22T11:12:39.564Z,100430.25
2023-08-22T11:13:43.643Z,100439.75
2023-08-22T11:14:50.448Z,100432.81
2023-08-22T11:15:52.879Z,100423.41
2023-08-22T11:16:55.292Z,100426.31
2023-08-22T11:17:57.702Z,100430.88
2023-08-22T11:19:00.314Z,100433.41
2023-08-22T11:20:02.723Z,100436.38
2023-08-22T11:21:05.728Z,100432.00
2023-08-22T11:22:08.224Z,100430.84
2023-08-22T11:23:12.464Z,100440.28
2023-08-22T11:24:14.936Z,100438.28
2023-08-22T11:25:24.828Z,100439.59
2023-08-22T11:26:27.178Z,100435.53
2023-08-22T11:27:29.531Z,100433.50
2023-08-22T11:28:36.369Z,100440.59
2023-08-22T11:29:45.157Z,100432.06
2023-08-22T11:30:52.203Z,100432.09
2023-08-22T11:31:54.597Z,100425.59
2023-08-22T11:32:56.956Z,100437.91
2023-08-22T11:33:59.346Z,100437.53
2023-08-22T11:35:06.980Z,100431.88
2023-08-22T11:36:09.371Z,100426.56
2023-08-22T11:37:12.574Z,100431.94
2023-08-22T11:38:15.091Z,100434.44
2023-08-22T11:39:17.605Z,100430.03
2023-08-22T11:40:22.140Z,100435.00
2023-08-22T11:41:24.681Z,100430.16
2023-08-22T11:42:30.976Z,100433.03
2023-08-22T11:43:33.883Z,100429.41
2023-08-22T11:45:12.539Z,100431.47
2023-08-22T11:46:15.034Z,100432.81
2023-08-22T11:47:17.762Z,100441.00
2023-08-22T11:48:24.397Z,100438.63
2023-08-22T11:49:26.773Z,100440.28
2023-08-22T11:50:30.392Z,100443.19
2023-08-22T11:51:32.797Z,100446.06
2023-08-22T11:52:36.704Z,100437.09
2023-08-22T11:53:39.823Z,100437.53
2023-08-22T11:54:46.423Z,100433.44
2023-08-22T11:55:56.531Z,100440.81
2023-08-22T11:57:02.367Z,100434.25
2023-08-22T11:58:05.465Z,100444.50
2023-08-22T11:59:10.256Z,100441.22
2023-08-22T12:00:14.686Z,100430.59
2023-08-22T12:01:18.090Z,100438.41
2023-08-22T12:02:21.469Z,100436.41
2023-08-22T12:03:24.030Z,100438.47
2023-08-22T12:04:26.467Z,100445.00
2023-08-22T12:05:42.186Z,100434.81
2023-08-22T12:06:59.568Z,100441.00
2023-08-22T12:08:22.935Z,100444.28
2023-08-22T12:09:25.552Z,100444.72
2023-08-22T12:10:45.986Z,100448.00
2023-08-22T12:11:48.335Z,100441.47